Time;durP1;ratioP1;P1;durP2;ratioP2;P2;SDS_P1;SDS_P2;PMS_P1;PMS_P2;Temp;Humidity;BMP_temperature;BMP_pressure;BME280_temperature;BME280_humidity;BME280_pressure;Samples;Min_cycle;Max_cycle;Signal;HPM_P1;HPM_P2
2023/03/06 00:02:18;;;;;;;148.87;135.47;;;3.10;99.90;;;;;;5087381;28;20308;-50
2023/03/06 00:04:46;;;;;;;92.27;78.83;;;3.10;99.90;;;;;;5089682;28;20715;-51
2023/03/06 00:07:15;;;;;;;211.63;141.37;;;3.10;99.90;;;;;;5089620;28;20748;-51
2023/03/06 00:09:43;;;;;;;275.00;146.40;;;3.10;99.90;;;;;;5089191;28;20209;-51
2023/03/06 00:12:11;;;;;;;203.13;147.70;;;3.10;99.90;;;;;;5089669;28;20762;-50
2023/03/06 00:14:39;;;;;;;151.67;136.70;;;3.10;99.90;;;;;;5093567;28;20224;-50
2023/03/06 00:17:07;;;;;;;110.67;98.73;;;3.10;99.90;;;;;;5093538;28;20296;-50
2023/03/06 00:19:35;;;;;;;199.03;129.43;;;3.20;99.90;;;;;;5092501;28;20292;-50
2023/03/06 00:22:03;;;;;;;122.73;110.73;;;3.10;99.90;;;;;;5089482;28;20232;-50
2023/03/06 00:24:32;;;;;;;180.73;162.27;;;3.20;99.90;;;;;;5089490;28;20229;-51
2023/03/06 00:27:00;;;;;;;126.07;113.13;;;3.20;99.90;;;;;;5089817;28;20241;-51
2023/03/06 00:29:28;;;;;;;139.00;95.13;;;3.20;99.90;;;;;;5088996;28;20213;-51
2023/03/06 00:31:56;;;;;;;173.73;109.60;;;3.10;99.90;;;;;;5089324;28;20250;-49
2023/03/06 00:34:24;;;;;;;166.63;132.90;;;3.10;99.90;;;;;;5089158;28;20731;-50
2023/03/06 00:36:53;;;;;;;152.40;130.43;;;3.20;99.90;;;;;;5089323;28;20298;-50
2023/03/06 00:39:22;;;;;;;134.73;110.67;;;3.20;99.90;;;;;;5088979;28;20214;-51
2023/03/06 00:41:51;;;;;;;152.97;134.03;;;3.20;99.90;;;;;;5088886;28;20334;-51
2023/03/06 00:44:19;;;;;;;145.10;122.90;;;3.20;99.90;;;;;;5089153;28;20321;-51
2023/03/06 00:46:47;;;;;;;99.00;88.87;;;3.20;99.90;;;;;;5089028;28;20282;-51
2023/03/06 00:49:15;;;;;;;109.87;98.77;;;3.20;99.90;;;;;;5088968;28;20214;-49
2023/03/06 00:51:43;;;;;;;85.57;76.87;;;3.30;99.90;;;;;;5088887;28;20318;-51
2023/03/06 00:54:11;;;;;;;157.80;130.17;;;3.30;99.90;;;;;;5089300;28;20294;-50
2023/03/06 00:56:39;;;;;;;181.27;119.37;;;3.30;99.90;;;;;;5089128;28;20650;-51
2023/03/06 00:59:10;;;;;;;288.57;149.37;;;3.30;99.90;;;;;;5088746;28;20200;-50
2023/03/06 01:01:38;;;;;;;106.83;79.30;;;3.20;99.90;;;;;;5089117;28;20238;-50
2023/03/06 01:04:06;;;;;;;442.40;201.00;;;3.20;99.90;;;;;;5088917;28;20313;-51
2023/03/06 01:06:34;;;;;;;168.10;141.30;;;3.20;99.90;;;;;;5089396;28;20295;-51
2023/03/06 01:09:03;;;;;;;180.93;151.63;;;3.20;99.90;;;;;;5088783;28;20302;-51
2023/03/06 01:11:31;;;;;;;115.67;84.23;;;3.20;99.90;;;;;;5088794;28;20229;-51
2023/03/06 01:13:59;;;;;;;349.63;187.03;;;3.20;99.90;;;;;;5088713;28;20210;-50
2023/03/06 01:16:29;;;;;;;237.83;131.67;;;3.20;99.90;;;;;;5088708;28;20289;-51
2023/03/06 01:18:57;;;;;;;137.27;104.37;;;3.10;99.90;;;;;;5088870;28;20214;-50
2023/03/06 01:21:25;;;;;;;142.50;128.60;;;3.10;99.90;;;;;;5088584;28;20263;-51
2023/03/06 01:23:53;;;;;;;217.47;156.67;;;3.20;99.90;;;;;;5088945;28;20263;-51
2023/03/06 01:26:21;;;;;;;217.03;158.57;;;3.20;99.90;;;;;;5088572;28;20247;-51
2023/03/06 01:28:49;;;;;;;126.43;112.50;;;3.20;99.90;;;;;;5088329;28;20732;-51
2023/03/06 01:31:17;;;;;;;132.17;115.27;;;3.10;99.90;;;;;;5088299;28;20870;-48
2023/03/06 01:33:47;;;;;;;171.17;153.73;;;3.10;99.90;;;;;;5088843;28;20198;-50
2023/03/06 01:36:15;;;;;;;158.80;109.83;;;3.20;99.90;;;;;;5088306;28;20297;-51
2023/03/06 01:38:43;;;;;;;145.10;130.50;;;3.10;99.90;;;;;;5088262;28;20297;-51
2023/03/06 01:41:14;;;;;;;126.23;112.33;;;3.10;99.90;;;;;;5088581;28;20848;-51
2023/03/06 01:43:44;;;;;;;110.07;86.30;;;3.20;99.90;;;;;;5088307;28;20242;-50
2023/03/06 01:46:40;;;;;;;197.33;136.07;;;3.20;99.90;;;;;;5088420;28;20652;-50
2023/03/06 01:49:16;;;;;;;141.53;113.13;;;3.10;99.90;;;;;;5075702;28;20214;-50
2023/03/06 01:51:49;;;;;;;193.10;148.60;;;3.10;99.90;;;;;;5088439;28;20320;-50
2023/03/06 01:54:21;;;;;;;160.37;123.93;;;3.10;99.90;;;;;;5088641;28;20301;-50
2023/03/06 01:56:52;;;;;;;96.90;54.90;;;3.10;99.90;;;;;;5088108;28;20670;-51
2023/03/06 01:59:21;;;;;;;206.67;141.93;;;3.10;99.90;;;;;;5088357;28;20223;-49
2023/03/06 02:01:50;;;;;;;150.17;125.90;;;3.10;99.90;;;;;;5087934;28;20248;-49
2023/03/06 02:04:20;;;;;;;309.00;152.43;;;3.10;99.90;;;;;;5088161;28;20894;-50
2023/03/06 02:06:48;;;;;;;165.87;115.70;;;3.20;99.90;;;;;;5087801;28;20210;-50
2023/03/06 02:09:16;;;;;;;167.23;108.60;;;3.10;99.90;;;;;;5088619;28;20633;-51
2023/03/06 02:11:45;;;;;;;208.87;129.93;;;3.10;99.90;;;;;;5089034;28;20655;-50
2023/03/06 02:14:15;;;;;;;170.70;127.40;;;3.10;99.90;;;;;;5095526;28;20210;-50
2023/03/06 02:16:43;;;;;;;229.97;150.87;;;3.10;99.90;;;;;;5105720;28;20709;-51
2023/03/06 02:19:24;;;;;;;351.20;150.83;;;3.10;99.90;;;;;;5098008;28;20205;-50
2023/03/06 02:21:52;;;;;;;218.60;130.70;;;3.10;99.90;;;;;;5100839;28;20232;-50
2023/03/06 02:24:31;;;;;;;157.07;112.27;;;3.00;99.90;;;;;;5113523;28;20321;-50
2023/03/06 02:27:03;;;;;;;220.77;157.33;;;3.00;99.90;;;;;;5106175;28;20742;-50
2023/03/06 02:29:31;;;;;;;132.30;118.17;;;3.00;99.90;;;;;;5108020;28;20212;-50
2023/03/06 02:31:59;;;;;;;176.23;116.60;;;3.00;99.90;;;;;;5112227;28;20341;-51
2023/03/06 02:34:51;;;;;;;164.40;122.67;;;3.00;99.90;;;;;;5108909;28;20202;-50
2023/03/06 02:37:21;;;;;;;273.07;216.70;;;3.10;99.90;;;;;;5088035;28;20254;-49
2023/03/06 02:39:54;;;;;;;188.10;138.37;;;3.00;99.90;;;;;;5111321;28;20219;-49
2023/03/06 02:42:27;;;;;;;126.30;112.80;;;3.10;99.90;;;;;;5111785;28;20207;-51
2023/03/06 02:44:57;;;;;;;145.40;130.97;;;3.10;99.90;;;;;;5096850;28;20232;-50
2023/03/06 02:47:25;;;;;;;107.30;84.60;;;3.10;99.90;;;;;;5104931;28;20197;-50
2023/03/06 02:49:53;;;;;;;682.47;213.07;;;3.10;99.90;;;;;;5104429;28;20676;-50
2023/03/06 02:52:21;;;;;;;185.40;117.33;;;3.10;99.90;;;;;;5103567;28;20331;-51
2023/03/06 02:54:49;;;;;;;297.43;110.90;;;3.10;99.90;;;;;;5111622;28;20225;-50
2023/03/06 02:57:17;;;;;;;284.03;177.13;;;3.00;99.90;;;;;;5111669;28;20201;-50
2023/03/06 02:59:46;;;;;;;142.83;101.33;;;3.00;99.90;;;;;;5111441;28;20292;-50
2023/03/06 03:02:14;;;;;;;188.87;168.50;;;3.10;99.90;;;;;;5111303;28;20239;-51
2023/03/06 03:04:42;;;;;;;222.13;131.53;;;3.10;99.90;;;;;;5108524;28;20314;-50
2023/03/06 03:07:10;;;;;;;931.40;324.60;;;3.10;99.90;;;;;;5111091;28;20216;-50
2023/03/06 03:09:38;;;;;;;226.37;156.10;;;3.00;99.90;;;;;;5111143;28;20232;-50
2023/03/06 03:12:07;;;;;;;228.10;119.30;;;3.10;99.90;;;;;;5106970;28;20263;-49
2023/03/06 03:14:35;;;;;;;219.40;163.87;;;3.10;99.90;;;;;;5111250;28;20232;-51
2023/03/06 03:17:05;;;;;;;310.07;159.10;;;3.00;99.90;;;;;;5100514;28;20259;-51
2023/03/06 03:19:33;;;;;;;112.87;91.00;;;3.00;99.90;;;;;;5095615;28;20288;-49
2023/03/06 03:22:01;;;;;;;333.90;164.43;;;3.00;99.90;;;;;;5103980;28;20255;-50
2023/03/06 03:24:29;;;;;;;132.33;90.73;;;3.00;99.90;;;;;;5108086;28;20227;-51
2023/03/06 03:26:57;;;;;;;187.03;102.07;;;3.00;99.90;;;;;;5100001;28;20205;-50
2023/03/06 03:29:25;;;;;;;156.57;135.20;;;3.10;99.90;;;;;;5110536;28;20297;-50
2023/03/06 03:31:53;;;;;;;234.20;155.13;;;3.00;99.90;;;;;;5110528;28;20668;-51
2023/03/06 03:34:22;;;;;;;303.63;146.97;;;3.00;99.90;;;;;;5110390;28;20240;-51
2023/03/06 03:36:50;;;;;;;161.57;94.20;;;3.00;99.90;;;;;;5110760;28;20597;-51
2023/03/06 03:39:18;;;;;;;398.63;184.20;;;3.00;99.90;;;;;;5109529;28;20284;-51
2023/03/06 03:41:46;;;;;;;147.47;102.93;;;3.10;99.90;;;;;;5091668;28;20252;-51
2023/03/06 03:44:14;;;;;;;91.17;66.17;;;3.00;99.90;;;;;;5079906;28;20305;-50
2023/03/06 03:46:42;;;;;;;318.43;162.40;;;3.00;99.90;;;;;;5099339;28;20212;-51
2023/03/06 03:49:10;;;;;;;273.30;154.37;;;3.00;99.90;;;;;;5102010;28;20616;-50
2023/03/06 03:51:40;;;;;;;214.57;137.13;;;3.00;99.90;;;;;;5104453;28;20282;-50
2023/03/06 03:54:08;;;;;;;151.43;106.73;;;3.00;99.90;;;;;;5110737;28;20344;-50
2023/03/06 03:56:38;;;;;;;198.97;143.87;;;3.00;99.90;;;;;;5110711;28;20295;-50
2023/03/06 03:59:06;;;;;;;466.67;118.67;;;3.00;99.90;;;;;;5095742;28;20203;-50
2023/03/06 04:01:35;;;;;;;219.13;140.17;;;2.90;99.90;;;;;;5110122;28;20307;-51
2023/03/06 04:04:06;;;;;;;184.60;130.17;;;3.00;99.90;;;;;;5110277;28;20208;-51
2023/03/06 04:06:34;;;;;;;144.80;100.13;;;3.00;99.90;;;;;;5104883;28;20302;-51
2023/03/06 04:09:04;;;;;;;255.17;153.47;;;3.00;99.90;;;;;;5107733;28;20311;-50
2023/03/06 04:11:32;;;;;;;259.60;135.63;;;3.00;99.90;;;;;;5110158;28;20339;-51
2023/03/06 04:14:00;;;;;;;113.33;89.57;;;3.00;99.90;;;;;;5108070;28;20332;-51
2023/03/06 04:16:28;;;;;;;205.30;147.93;;;3.10;99.90;;;;;;5097591;28;20286;-50
2023/03/06 04:18:56;;;;;;;153.07;105.27;;;3.10;99.90;;;;;;5106168;28;20224;-49
2023/03/06 04:21:24;;;;;;;291.40;173.23;;;3.00;99.90;;;;;;5107724;28;20311;-50
2023/03/06 04:23:52;;;;;;;177.27;132.13;;;3.00;99.90;;;;;;5089585;28;20230;-50
2023/03/06 04:26:21;;;;;;;151.73;121.07;;;3.00;99.90;;;;;;5089300;28;20311;-50
2023/03/06 04:28:49;;;;;;;140.57;105.93;;;3.00;99.90;;;;;;5089351;28;20235;-49
2023/03/06 04:31:17;;;;;;;124.43;83.87;;;3.10;99.90;;;;;;5088875;28;20230;-50
2023/03/06 04:33:45;;;;;;;92.00;63.80;;;3.10;99.90;;;;;;5089101;28;20205;-50
2023/03/06 04:36:24;;;;;;;186.87;134.80;;;3.20;99.90;;;;;;5089357;28;20569;-50
2023/03/06 04:38:52;;;;;;;207.83;155.63;;;3.20;99.90;;;;;;5089242;28;20290;-50
2023/03/06 04:41:22;;;;;;;298.20;111.70;;;3.20;99.90;;;;;;5089176;28;20281;-51
2023/03/06 04:43:50;;;;;;;173.80;123.63;;;3.10;99.90;;;;;;5088947;28;20283;-50
2023/03/06 04:46:18;;;;;;;205.37;127.43;;;3.10;99.90;;;;;;5090730;28;20310;-51
2023/03/06 04:48:46;;;;;;;240.47;120.37;;;3.10;99.90;;;;;;5092906;28;20915;-51
2023/03/06 04:51:15;;;;;;;146.53;115.93;;;3.10;99.90;;;;;;5105693;28;20318;-50
2023/03/06 04:53:43;;;;;;;203.73;123.97;;;3.10;99.90;;;;;;5089658;28;20738;-50
2023/03/06 04:56:11;;;;;;;226.83;127.30;;;3.10;99.90;;;;;;5089184;28;20293;-50
2023/03/06 04:58:40;;;;;;;290.30;165.07;;;3.10;99.90;;;;;;5088668;28;20316;-51
2023/03/06 05:01:08;;;;;;;148.87;113.63;;;3.10;99.90;;;;;;5088238;28;20312;-50
2023/03/06 05:03:36;;;;;;;101.77;75.03;;;3.00;99.90;;;;;;5088863;28;20255;-51
2023/03/06 05:06:05;;;;;;;474.03;192.53;;;3.00;99.90;;;;;;5088418;28;20237;-50
2023/03/06 05:08:33;;;;;;;307.27;195.93;;;3.00;99.90;;;;;;5088861;28;20243;-51
2023/03/06 05:11:01;;;;;;;483.17;181.80;;;3.00;99.90;;;;;;5093347;28;20791;-50
2023/03/06 05:13:30;;;;;;;281.23;135.90;;;2.90;99.90;;;;;;5096083;28;20667;-50
2023/03/06 05:16:03;;;;;;;185.70;111.17;;;2.90;99.90;;;;;;5090255;28;20201;-51
2023/03/06 05:18:32;;;;;;;261.80;129.40;;;3.00;99.90;;;;;;5094345;28;20305;-50
2023/03/06 05:21:00;;;;;;;105.60;92.03;;;3.00;99.90;;;;;;5088705;28;20809;-50
2023/03/06 05:23:29;;;;;;;146.63;105.30;;;2.90;99.90;;;;;;5099725;28;20292;-49
2023/03/06 05:25:57;;;;;;;223.37;118.83;;;2.90;99.90;;;;;;5088768;28;20237;-51
2023/03/06 05:28:25;;;;;;;200.50;164.43;;;2.80;99.90;;;;;;5089730;28;20637;-51
2023/03/06 05:30:53;;;;;;;163.17;132.73;;;2.90;99.90;;;;;;5107318;28;20708;-50
2023/03/06 05:33:23;;;;;;;118.40;79.97;;;2.90;99.90;;;;;;5098089;28;20212;-49
2023/03/06 05:35:51;;;;;;;231.63;145.73;;;2.90;99.90;;;;;;5091806;28;20243;-50
2023/03/06 05:38:19;;;;;;;280.03;151.30;;;2.90;99.90;;;;;;5092026;28;20203;-50
2023/03/06 05:40:47;;;;;;;140.37;97.47;;;2.90;99.90;;;;;;5097813;28;20310;-50
2023/03/06 05:43:15;;;;;;;201.23;136.67;;;3.00;99.90;;;;;;5091484;28;20598;-50
2023/03/06 05:45:43;;;;;;;151.17;132.10;;;3.00;99.90;;;;;;5097681;28;20313;-50
2023/03/06 05:48:13;;;;;;;148.03;105.07;;;3.00;99.90;;;;;;5081845;28;21189;-50
2023/03/06 05:50:42;;;;;;;208.33;147.80;;;3.00;99.90;;;;;;5088444;28;20224;-51
2023/03/06 05:53:10;;;;;;;179.47;137.87;;;3.00;99.90;;;;;;5088142;28;20784;-50
2023/03/06 05:55:38;;;;;;;205.47;128.00;;;3.00;99.90;;;;;;5089007;28;20204;-51
2023/03/06 05:58:06;;;;;;;180.57;148.93;;;3.00;99.90;;;;;;5089456;28;20298;-50
2023/03/06 06:00:34;;;;;;;185.13;132.10;;;3.00;99.90;;;;;;5090114;28;20779;-51
2023/03/06 06:03:02;;;;;;;182.63;147.60;;;3.00;99.90;;;;;;5089184;28;20262;-50
2023/03/06 06:05:30;;;;;;;341.27;163.10;;;2.90;99.90;;;;;;5091959;28;20304;-50
2023/03/06 06:08:00;;;;;;;266.97;136.03;;;2.90;99.90;;;;;;5091090;28;20226;-50
2023/03/06 06:10:28;;;;;;;166.50;77.83;;;3.00;99.90;;;;;;5098381;28;20314;-50
2023/03/06 06:12:56;;;;;;;237.83;124.80;;;3.00;99.90;;;;;;5095092;28;20314;-50
2023/03/06 06:15:26;;;;;;;194.23;139.77;;;2.90;99.90;;;;;;5091534;28;20214;-50
2023/03/06 06:17:55;;;;;;;187.60;101.40;;;3.00;99.90;;;;;;5092531;28;20873;-51
2023/03/06 06:20:23;;;;;;;279.77;153.83;;;3.00;99.90;;;;;;5091123;28;20222;-50
2023/03/06 06:22:51;;;;;;;143.63;83.27;;;3.00;99.90;;;;;;5094810;28;20208;-50
2023/03/06 06:25:20;;;;;;;167.23;111.23;;;3.10;99.90;;;;;;5091522;28;20214;-50
2023/03/06 06:27:48;;;;;;;197.90;112.53;;;3.10;99.90;;;;;;5091017;28;20239;-51
2023/03/06 06:30:17;;;;;;;143.30;107.27;;;3.10;99.90;;;;;;5090635;28;20357;-50
2023/03/06 06:32:45;;;;;;;119.67;90.33;;;3.10;99.90;;;;;;5091049;28;20225;-50
2023/03/06 06:35:13;;;;;;;168.07;112.27;;;3.10;99.90;;;;;;5090043;28;20611;-50
2023/03/06 06:37:41;;;;;;;225.03;146.37;;;3.10;99.90;;;;;;5091299;28;20229;-51
2023/03/06 06:40:10;;;;;;;158.53;86.27;;;3.10;99.90;;;;;;5100319;28;20255;-50
2023/03/06 06:42:39;;;;;;;391.60;194.00;;;3.10;99.90;;;;;;5091087;28;20284;-50
2023/03/06 06:45:09;;;;;;;104.90;69.00;;;3.10;99.90;;;;;;5089799;28;20316;-50
2023/03/06 06:47:39;;;;;;;116.47;95.07;;;3.10;99.90;;;;;;5084472;28;20220;-49
2023/03/06 06:50:11;;;;;;;239.43;141.50;;;3.10;99.90;;;;;;5094423;28;20224;-51
2023/03/06 06:52:39;;;;;;;159.80;123.40;;;3.10;99.90;;;;;;5093138;28;20365;-50
2023/03/06 06:55:09;;;;;;;125.13;103.10;;;3.20;99.90;;;;;;5095744;28;20210;-50
2023/03/06 06:57:37;;;;;;;124.97;78.63;;;3.20;99.90;;;;;;5105193;28;20291;-49
2023/03/06 07:00:08;;;;;;;154.43;123.43;;;3.30;99.90;;;;;;5089656;28;20228;-49
2023/03/06 07:02:36;;;;;;;180.23;130.77;;;3.30;99.90;;;;;;5090608;28;20208;-49
2023/03/06 07:05:05;;;;;;;154.60;109.17;;;3.30;99.90;;;;;;5089834;28;20244;-50
2023/03/06 07:07:35;;;;;;;171.33;134.73;;;3.30;99.90;;;;;;5090075;28;20309;-49
2023/03/06 07:10:05;;;;;;;203.50;147.43;;;3.30;99.90;;;;;;5090128;28;20212;-50
2023/03/06 07:12:33;;;;;;;179.83;117.03;;;3.30;99.90;;;;;;5090058;28;20266;-50
2023/03/06 07:15:02;;;;;;;156.63;106.80;;;3.30;99.90;;;;;;5089539;28;20561;-50
2023/03/06 07:17:32;;;;;;;104.97;74.93;;;3.40;99.90;;;;;;5089872;28;20279;-49
2023/03/06 07:20:00;;;;;;;110.13;75.57;;;3.40;99.90;;;;;;5089201;28;20203;-49
2023/03/06 07:22:28;;;;;;;254.70;113.53;;;3.40;99.90;;;;;;5089951;28;20291;-49
2023/03/06 07:25:09;;;;;;;120.10;91.97;;;3.40;99.90;;;;;;5094305;28;20210;-49
2023/03/06 07:27:37;;;;;;;269.33;128.57;;;3.40;99.90;;;;;;5093734;28;20257;-49
2023/03/06 07:30:05;;;;;;;186.60;111.00;;;3.50;99.90;;;;;;5104150;28;20206;-49
2023/03/06 07:32:35;;;;;;;171.67;127.27;;;3.50;99.90;;;;;;5104492;28;20288;-50
2023/03/06 07:35:03;;;;;;;138.13;110.43;;;3.50;99.90;;;;;;5084735;28;20209;-51
2023/03/06 07:37:47;;;;;;;182.53;120.53;;;3.50;99.90;;;;;;5088165;28;20197;-50
2023/03/06 07:40:15;;;;;;;288.40;149.57;;;3.50;99.90;;;;;;5088307;28;20311;-49
2023/03/06 07:42:43;;;;;;;127.97;78.13;;;3.50;99.90;;;;;;5088181;28;20207;-49
2023/03/06 07:45:12;;;;;;;122.33;108.90;;;3.50;99.90;;;;;;5083576;28;20233;-50
2023/03/06 07:47:42;;;;;;;246.17;161.43;;;3.60;99.90;;;;;;5086931;28;20219;-49
2023/03/06 07:50:11;;;;;;;315.03;172.23;;;3.60;99.90;;;;;;5092336;28;20308;-50
2023/03/06 07:52:39;;;;;;;113.73;87.87;;;3.60;99.90;;;;;;5087803;28;20297;-50
2023/03/06 07:55:09;;;;;;;299.47;130.33;;;3.60;99.90;;;;;;5107686;28;20292;-50
2023/03/06 07:57:37;;;;;;;389.53;169.60;;;3.60;99.90;;;;;;5093286;28;20198;-50
2023/03/06 08:00:07;;;;;;;187.23;111.97;;;3.60;99.90;;;;;;5089681;28;20327;-49
2023/03/06 08:02:35;;;;;;;214.70;105.73;;;3.60;99.90;;;;;;5088861;28;20639;-50
2023/03/06 08:05:07;;;;;;;109.83;86.93;;;3.60;99.90;;;;;;5084276;28;20264;-50
2023/03/06 08:07:35;;;;;;;125.73;69.87;;;3.70;99.90;;;;;;5088283;28;20216;-50
2023/03/06 08:10:03;;;;;;;130.37;111.03;;;3.80;99.90;;;;;;5088309;28;20618;-50
2023/03/06 08:12:32;;;;;;;184.27;109.83;;;3.80;99.90;;;;;;5087844;28;20311;-50
2023/03/06 08:15:00;;;;;;;124.50;82.67;;;3.90;99.90;;;;;;5089651;28;20215;-49
2023/03/06 08:17:28;;;;;;;635.43;181.93;;;4.00;99.90;;;;;;5088351;28;20212;-49
2023/03/06 08:19:56;;;;;;;99.67;81.57;;;4.10;99.90;;;;;;5088877;28;20236;-50
2023/03/06 08:22:26;;;;;;;60.53;43.77;;;4.20;99.90;;;;;;5088500;28;20298;-50
2023/03/06 08:24:55;;;;;;;104.37;87.07;;;4.30;99.90;;;;;;5089051;28;20280;-50
2023/03/06 08:27:23;;;;;;;145.17;130.20;;;4.60;99.90;;;;;;5093573;28;20272;-50
2023/03/06 08:29:51;;;;;;;97.23;87.20;;;4.70;99.90;;;;;;5081815;28;20202;-50
2023/03/06 08:32:19;;;;;;;125.17;112.57;;;4.90;99.90;;;;;;5075064;28;20207;-50
2023/03/06 08:34:47;;;;;;;68.70;55.00;;;5.00;99.90;;;;;;5094276;28;20218;-50
2023/03/06 08:37:15;;;;;;;459.83;175.97;;;5.30;99.90;;;;;;5083950;28;20279;-49
2023/03/06 08:39:44;;;;;;;377.27;199.67;;;5.50;99.90;;;;;;5089023;28;20209;-49
2023/03/06 08:42:14;;;;;;;130.93;113.27;;;5.40;99.90;;;;;;5087899;28;20261;-50
2023/03/06 08:44:43;;;;;;;128.93;115.60;;;5.30;99.90;;;;;;5088841;28;20210;-49
2023/03/06 08:47:11;;;;;;;207.97;187.77;;;5.30;99.90;;;;;;5087589;28;20252;-50
2023/03/06 08:49:39;;;;;;;245.57;207.40;;;5.30;99.90;;;;;;5087825;28;20241;-50
2023/03/06 08:52:08;;;;;;;193.40;145.80;;;5.40;99.90;;;;;;5105437;28;20271;-49
2023/03/06 08:54:37;;;;;;;89.00;79.80;;;5.60;99.90;;;;;;5091129;28;20285;-50
2023/03/06 08:57:07;;;;;;;1414.87;445.87;;;5.70;99.90;;;;;;5087420;28;20229;-50
2023/03/06 08:59:36;;;;;;;1728.30;432.10;;;5.80;99.90;;;;;;5087155;28;20230;-50
2023/03/06 09:02:06;;;;;;;834.27;429.77;;;5.80;99.90;;;;;;5088080;28;20270;-49
2023/03/06 09:04:34;;;;;;;1487.73;467.63;;;5.60;99.90;;;;;;5086271;28;20211;-50
2023/03/06 09:07:02;;;;;;;1062.97;459.20;;;5.60;99.90;;;;;;5088886;28;20258;-50
2023/03/06 09:09:30;;;;;;;1098.57;583.93;;;5.50;99.90;;;;;;5087902;28;20295;-50
2023/03/06 09:11:58;;;;;;;1999.90;817.30;;;5.40;99.90;;;;;;5087888;28;20234;-50
2023/03/06 09:14:28;;;;;;;1380.27;530.83;;;5.30;99.90;;;;;;5087792;28;20310;-50
2023/03/06 09:16:56;;;;;;;1959.87;700.43;;;5.20;99.90;;;;;;5089203;28;20267;-49
2023/03/06 09:19:24;;;;;;;893.33;571.53;;;5.30;99.90;;;;;;5089435;28;20225;-51
2023/03/06 09:21:52;;;;;;;1999.90;766.50;;;5.20;99.90;;;;;;5102312;28;20281;-50
2023/03/06 09:24:20;;;;;;;1364.93;666.40;;;5.30;99.90;;;;;;5092175;28;20206;-50
2023/03/06 09:26:48;;;;;;;1045.10;635.97;;;5.40;99.90;;;;;;5095377;28;20242;-51
2023/03/06 09:29:18;;;;;;;1151.03;594.87;;;5.40;99.90;;;;;;5088880;28;20206;-50
2023/03/06 09:31:48;;;;;;;1999.90;887.03;;;5.50;99.90;;;;;;5096035;28;20234;-50
2023/03/06 09:34:16;;;;;;;1999.90;767.47;;;5.50;99.90;;;;;;5098318;28;20298;-50
2023/03/06 09:36:44;;;;;;;1999.90;999.90;;;5.50;99.90;;;;;;5091939;28;20209;-50
2023/03/06 09:39:24;;;;;;;1999.90;863.13;;;5.40;99.90;;;;;;5091891;28;20198;-49
2023/03/06 09:41:53;;;;;;;1999.90;999.90;;;5.40;99.90;;;;;;5096656;28;20789;-50
2023/03/06 09:44:24;;;;;;;1999.90;766.67;;;5.40;99.90;;;;;;5091366;28;20235;-49
2023/03/06 09:47:14;;;;;;;1801.27;804.87;;;5.30;99.90;;;;;;5092244;28;20245;-50
2023/03/06 09:49:53;;;;;;;1595.33;671.87;;;5.10;99.90;;;;;;5092498;28;20309;-49
2023/03/06 09:52:30;;;;;;;623.67;522.53;;;5.10;99.90;;;;;;5112523;28;20299;-50
2023/03/06 09:55:05;;;;;;;1999.90;810.57;;;5.20;99.90;;;;;;5093957;28;20239;-49
2023/03/06 09:57:38;;;;;;;1960.00;814.47;;;5.20;99.90;;;;;;5092069;28;20284;-51
2023/03/06 10:00:13;;;;;;;1999.90;996.23;;;5.20;99.90;;;;;;5091335;28;20723;-51
2023/03/06 10:02:45;;;;;;;1999.90;846.90;;;5.20;99.90;;;;;;5080382;28;20211;-51
2023/03/06 10:05:20;;;;;;;1999.90;999.90;;;5.20;99.90;;;;;;5088769;28;20285;-51
2023/03/06 10:07:55;;;;;;;1999.90;736.57;;;5.20;99.90;;;;;;5092068;28;20217;-51
2023/03/06 10:10:25;;;;;;;1999.90;902.33;;;5.20;99.90;;;;;;5087834;28;20259;-50
2023/03/06 10:13:05;;;;;;;1203.47;696.07;;;5.40;99.90;;;;;;5081757;28;20220;-50
2023/03/06 10:15:38;;;;;;;1999.90;850.47;;;5.40;99.90;;;;;;5088769;28;20735;-51
2023/03/06 10:18:10;;;;;;;1522.40;687.33;;;5.50;99.90;;;;;;5090402;28;20202;-50
2023/03/06 10:20:47;;;;;;;1942.87;835.37;;;5.60;99.90;;;;;;5088137;28;20271;-51
2023/03/06 10:23:28;;;;;;;1219.87;696.13;;;5.70;99.90;;;;;;5090319;28;20632;-53
2023/03/06 10:26:00;;;;;;;845.60;633.87;;;5.80;99.90;;;;;;5089551;28;20242;-49
2023/03/06 10:28:32;;;;;;;1624.97;793.10;;;5.80;99.90;;;;;;5090481;28;20239;-50
2023/03/06 10:31:09;;;;;;;1710.20;800.60;;;5.80;99.90;;;;;;5088414;28;20870;-51
2023/03/06 10:33:53;;;;;;;1910.23;874.00;;;5.80;99.90;;;;;;5093328;28;20211;-51
2023/03/06 10:36:24;;;;;;;1999.90;999.90;;;5.70;99.90;;;;;;5085915;28;20669;-51
2023/03/06 10:38:52;;;;;;;1999.90;803.90;;;5.70;99.90;;;;;;5091655;28;20203;-50
2023/03/06 10:41:24;;;;;;;1999.90;961.87;;;5.60;99.90;;;;;;5090892;28;20270;-49
2023/03/06 10:44:22;;;;;;;1972.27;873.13;;;5.40;99.90;;;;;;5089957;28;20223;-50
2023/03/06 10:46:52;;;;;;;1527.77;799.73;;;5.40;99.90;;;;;;5089423;28;20296;-50
2023/03/06 10:49:31;;;;;;;1999.90;826.93;;;5.40;99.90;;;;;;5086659;28;20224;-50
2023/03/06 10:52:03;;;;;;;1493.70;651.97;;;5.60;99.90;;;;;;5096808;28;20238;-50
2023/03/06 10:54:33;;;;;;;1203.60;690.90;;;5.50;99.90;;;;;;5100328;28;20203;-49
2023/03/06 10:57:21;;;;;;;1592.03;649.23;;;5.50;99.90;;;;;;5097140;28;20200;-50
2023/03/06 10:59:54;;;;;;;948.90;554.73;;;5.60;99.90;;;;;;5097937;28;20460;-49
2023/03/06 11:02:28;;;;;;;1177.20;669.23;;;5.50;99.90;;;;;;5094188;28;20205;-50
2023/03/06 11:05:00;;;;;;;928.60;596.40;;;5.60;99.90;;;;;;5097241;28;20205;-50
2023/03/06 11:07:30;;;;;;;1999.90;678.20;;;5.80;99.90;;;;;;5097957;28;20583;-50
2023/03/06 11:10:06;;;;;;;1999.90;973.97;;;5.70;99.90;;;;;;5091673;28;20261;-51
2023/03/06 11:12:36;;;;;;;1999.90;999.90;;;5.70;99.90;;;;;;5052496;28;1089241;-50
2023/03/06 11:15:17;;;;;;;1999.90;886.10;;;5.50;99.90;;;;;;5088868;28;20257;-50
2023/03/06 11:17:51;;;;;;;1643.70;753.07;;;5.50;99.90;;;;;;5090522;28;20209;-49
2023/03/06 11:20:23;;;;;;;1999.90;857.33;;;5.50;99.90;;;;;;5095770;28;20313;-49
2023/03/06 11:22:55;;;;;;;1376.47;650.37;;;5.50;99.90;;;;;;5091794;28;20237;-50
2023/03/06 11:25:28;;;;;;;1369.43;643.40;;;5.40;99.90;;;;;;5085129;28;20201;-50
2023/03/06 11:28:00;;;;;;;1999.90;881.00;;;5.50;99.90;;;;;;5088876;28;20685;-49
2023/03/06 11:30:34;;;;;;;691.43;511.47;;;5.40;99.90;;;;;;5089832;28;20226;-49
2023/03/06 11:33:09;;;;;;;1451.90;757.10;;;5.40;99.90;;;;;;5091627;28;20230;-49
2023/03/06 11:35:49;;;;;;;1579.13;823.03;;;5.40;99.90;;;;;;5093725;28;20292;-50
2023/03/06 11:38:22;;;;;;;570.10;498.60;;;5.30;99.90;;;;;;5096770;28;20284;-51
2023/03/06 11:40:53;;;;;;;1999.90;999.90;;;5.30;99.90;;;;;;5092545;28;20874;-50
2023/03/06 11:43:26;;;;;;;1999.90;999.90;;;5.20;99.90;;;;;;5087757;28;20679;-49
2023/03/06 11:45:59;;;;;;;1999.90;942.20;;;5.10;99.90;;;;;;5099782;28;20313;-50
2023/03/06 11:48:31;;;;;;;1150.70;615.93;;;5.10;99.90;;;;;;5091767;28;20304;-49
2023/03/06 11:51:06;;;;;;;1999.90;999.90;;;5.10;99.90;;;;;;5102739;28;20322;-49
2023/03/06 11:53:37;;;;;;;1999.90;761.80;;;5.00;99.90;;;;;;5096637;28;20934;-50
2023/03/06 11:56:21;;;;;;;1603.80;673.43;;;5.00;99.90;;;;;;5089903;28;20203;-51
2023/03/06 11:59:06;;;;;;;1999.90;924.67;;;5.10;99.90;;;;;;5091979;28;20882;-51
2023/03/06 12:01:38;;;;;;;1142.23;588.53;;;5.20;99.90;;;;;;5092225;28;20218;-50
2023/03/06 12:04:33;;;;;;;832.07;580.70;;;5.10;99.90;;;;;;5086475;28;20561;-51
2023/03/06 12:07:16;;;;;;;1999.90;770.67;;;5.10;99.90;;;;;;5086026;28;20237;-50
2023/03/06 12:09:48;;;;;;;1999.90;874.20;;;5.00;99.90;;;;;;5083983;28;20303;-49
2023/03/06 12:12:30;;;;;;;1478.73;531.20;;;4.90;99.90;;;;;;5087016;28;20245;-49
2023/03/06 12:15:19;;;;;;;1999.90;692.63;;;4.80;99.90;;;;;;5089558;28;20236;-50
2023/03/06 12:18:09;;;;;;;1281.53;444.60;;;4.70;99.90;;;;;;5089137;28;20293;-50
2023/03/06 12:20:49;;;;;;;1999.90;767.27;;;4.70;99.90;;;;;;5086456;28;20296;-50
2023/03/06 12:23:36;;;;;;;1250.27;442.20;;;4.70;99.90;;;;;;5088338;28;20253;-51
2023/03/06 12:26:14;;;;;;;1010.30;400.83;;;4.70;99.90;;;;;;5086141;28;20243;-50
2023/03/06 12:29:01;;;;;;;1391.73;438.60;;;4.70;99.90;;;;;;5088625;28;20249;-50
2023/03/06 12:31:43;;;;;;;1533.57;437.77;;;4.90;99.90;;;;;;5089362;28;20736;-51
2023/03/06 12:34:25;;;;;;;1721.23;484.30;;;4.80;99.90;;;;;;5075967;28;20200;-49